createdAt,value
2018-05-04T00:01:05.944Z,98.90
2018-05-04T00:07:10.307Z,98.90
2018-05-04T00:13:15.409Z,99.70
2018-05-04T00:19:20.099Z,99.70
2018-05-04T00:25:24.450Z,99.70
2018-05-04T00:31:29.660Z,99.90
2018-05-04T00:37:33.997Z,99.90
2018-05-04T00:43:39.133Z,99.90
2018-05-04T00:49:43.568Z,99.90
2018-05-04T00:55:47.925Z,99.90
2018-05-04T01:01:52.661Z,99.90
2018-05-04T01:07:57.008Z,99.90
2018-05-04T01:14:02.132Z,99.90
2018-05-04T01:20:06.485Z,99.90
2018-05-04T01:26:10.909Z,99.90
2018-05-04T01:32:15.282Z,99.90
2018-05-04T01:38:20.451Z,99.90
2018-05-04T01:44:25.007Z,99.90
2018-05-04T01:50:29.447Z,99.90
2018-05-04T01:56:33.878Z,99.90
2018-05-04T02:02:38.327Z,99.90
2018-05-04T02:08:43.554Z,99.90
2018-05-04T02:14:47.917Z,99.90
2018-05-04T02:20:53.058Z,99.90
2018-05-04T02:26:57.574Z,99.90
2018-05-04T02:33:02.783Z,99.90
2018-05-04T02:39:07.153Z,99.90
2018-05-04T02:45:11.614Z,99.90
2018-05-04T02:51:16.895Z,99.90
2018-05-04T02:57:22.015Z,99.90
2018-05-04T03:03:27.152Z,99.90
2018-05-04T03:09:31.503Z,99.90
2018-05-04T03:15:35.853Z,99.90
2018-05-04T03:21:41.059Z,99.90
2018-05-04T03:27:45.424Z,99.90
2018-05-04T03:33:49.920Z,99.90
2018-05-04T03:39:54.429Z,99.90
2018-05-04T03:45:58.852Z,99.90
2018-05-04T03:52:03.998Z,99.90
2018-05-04T03:58:26.196Z,99.90
2018-05-04T04:04:30.651Z,99.90
2018-05-04T04:10:35.036Z,99.90
2018-05-04T04:16:39.457Z,99.90
2018-05-04T04:22:44.591Z,99.90
2018-05-04T04:28:50.721Z,99.90
2018-05-04T04:34:56.001Z,99.90
2018-05-04T04:41:01.998Z,99.90
2018-05-04T04:47:06.439Z,99.90
2018-05-04T04:53:10.834Z,99.90
2018-05-04T04:59:15.933Z,99.90
2018-05-04T05:05:20.749Z,99.90
2018-05-04T05:11:25.323Z,99.90
2018-05-04T05:17:30.485Z,99.90
2018-05-04T05:23:34.856Z,99.90
2018-05-04T05:29:39.966Z,99.90
2018-05-04T05:35:44.334Z,99.90
2018-05-04T05:41:49.620Z,99.90
2018-05-04T05:47:54.445Z,99.90
2018-05-04T05:53:58.833Z,99.90
2018-05-04T06:00:03.196Z,99.90
2018-05-04T06:06:07.611Z,99.90
2018-05-04T06:12:11.949Z,99.90
2018-05-04T06:18:16.390Z,99.90
2018-05-04T06:24:21.584Z,99.90
2018-05-04T06:30:26.725Z,99.90
2018-05-04T06:36:31.115Z,99.90
2018-05-04T06:42:35.498Z,99.90
2018-05-04T06:48:39.869Z,99.90
2018-05-04T06:54:44.248Z,99.80
2018-05-04T07:00:48.719Z,98.20
2018-05-04T07:06:53.189Z,98.50
2018-05-04T07:12:57.582Z,97.00
2018-05-04T07:19:02.836Z,97.40
2018-05-04T07:25:07.223Z,97.00
2018-05-04T07:31:11.593Z,93.60
2018-05-04T07:37:15.957Z,92.00
2018-05-04T07:43:20.639Z,89.50
2018-05-04T07:49:25.802Z,89.10
2018-05-04T07:55:30.171Z,89.00
2018-05-04T08:01:34.529Z,83.90
2018-05-04T08:07:39.663Z,78.20
2018-05-04T08:13:44.015Z,78.20
2018-05-04T08:19:48.395Z,75.00
2018-05-04T08:25:52.829Z,69.30
2018-05-04T08:31:57.250Z,73.30
2018-05-04T08:38:01.618Z,69.10
2018-05-04T08:44:05.990Z,68.70
2018-05-04T08:50:10.344Z,69.50
2018-05-04T08:56:15.497Z,62.40
2018-05-04T09:02:20.077Z,62.30
2018-05-04T09:08:25.263Z,61.00
2018-05-04T09:14:29.624Z,60.80
2018-05-04T09:20:33.986Z,58.00
2018-05-04T09:26:38.360Z,57.90
2018-05-04T09:32:42.733Z,58.90
2018-05-04T09:38:47.102Z,56.60
2018-05-04T09:44:51.472Z,54.10
2018-05-04T09:50:55.960Z,51.70
2018-05-04T09:57:00.328Z,53.50
2018-05-04T10:03:05.561Z,50.50
2018-05-04T10:09:10.014Z,50.40
2018-05-04T10:15:14.376Z,48.00
2018-05-04T10:21:19.123Z,46.10
2018-05-04T10:27:23.906Z,45.90
2018-05-04T10:33:28.334Z,46.70
2018-05-04T10:39:32.723Z,48.60
2018-05-04T10:45:37.172Z,45.10
2018-05-04T10:51:41.566Z,45.60
2018-05-04T10:57:45.946Z,42.30
2018-05-04T11:03:50.951Z,40.20
2018-05-04T11:09:55.393Z,41.10
2018-05-04T11:15:59.863Z,37.60
2018-05-04T11:22:04.294Z,38.00
2018-05-04T11:28:08.684Z,37.30
2018-05-04T11:34:13.036Z,38.00
2018-05-04T11:40:17.534Z,40.60
2018-05-04T11:46:22.968Z,37.20
2018-05-04T11:52:27.350Z,35.10
2018-05-04T11:58:31.719Z,36.70
2018-05-04T12:04:36.111Z,35.40
2018-05-04T12:10:40.642Z,34.90
2018-05-04T12:16:45.179Z,32.90
2018-05-04T12:22:49.864Z,32.90
2018-05-04T12:28:54.275Z,34.50
2018-05-04T12:34:58.630Z,34.20
2018-05-04T12:41:03.070Z,32.40
2018-05-04T12:47:07.487Z,31.00
2018-05-04T12:53:11.817Z,30.30
2018-05-04T12:59:16.190Z,29.50
2018-05-04T13:05:20.835Z,28.70
2018-05-04T13:11:25.299Z,29.90
2018-05-04T13:17:29.756Z,30.40
2018-05-04T13:23:34.842Z,29.90
2018-05-04T13:29:39.216Z,29.40
2018-05-04T13:35:43.572Z,30.20
2018-05-04T13:41:47.938Z,30.60
2018-05-04T13:47:52.367Z,32.80
2018-05-04T13:53:56.827Z,32.20
2018-05-04T14:00:01.260Z,31.40
2018-05-04T14:06:05.620Z,30.40
2018-05-04T14:12:11.079Z,31.40
2018-05-04T14:18:15.438Z,31.30
2018-05-04T14:24:20.072Z,31.80
2018-05-04T14:30:25.223Z,30.50
2018-05-04T14:36:29.577Z,30.50
2018-05-04T14:42:33.938Z,31.80
2018-05-04T14:48:38.407Z,30.50
2018-05-04T14:54:43.539Z,31.10
2018-05-04T15:00:47.891Z,31.10
2018-05-04T15:06:52.412Z,31.20
2018-05-04T15:12:56.897Z,30.70
2018-05-04T15:19:01.262Z,30.00
2018-05-04T15:25:05.720Z,30.80
2018-05-04T15:31:10.009Z,29.50
2018-05-04T15:37:15.356Z,29.10
2018-05-04T15:43:19.796Z,29.20
2018-05-04T15:49:24.267Z,30.00
2018-05-04T15:55:28.665Z,31.50
2018-05-04T16:01:33.795Z,30.90
2018-05-04T16:07:38.151Z,30.90
2018-05-04T16:13:42.604Z,30.50
2018-05-04T16:19:46.895Z,30.40
2018-05-04T16:25:51.291Z,29.70
2018-05-04T16:31:55.718Z,29.80
2018-05-04T16:38:00.093Z,30.20
2018-05-04T16:44:04.474Z,30.90
2018-05-04T16:50:09.593Z,32.90
2018-05-04T16:56:13.975Z,32.80
2018-05-04T17:02:18.352Z,32.70
2018-05-04T17:08:23.300Z,30.50
2018-05-04T17:14:27.677Z,31.10
2018-05-04T17:20:32.067Z,32.40
2018-05-04T17:26:37.197Z,34.30
2018-05-04T17:32:41.599Z,34.30
2018-05-04T17:38:46.004Z,36.10
2018-05-04T17:44:51.710Z,35.70
2018-05-04T17:50:56.940Z,36.60
2018-05-04T17:57:01.287Z,36.60
2018-05-04T18:03:06.430Z,37.90
2018-05-04T18:09:10.795Z,37.90
2018-05-04T18:15:15.272Z,37.90
2018-05-04T18:21:19.841Z,38.80
2018-05-04T18:27:24.260Z,40.20
2018-05-04T18:33:28.835Z,41.50
2018-05-04T18:39:33.228Z,45.50
2018-05-04T18:45:37.648Z,47.80
2018-05-04T18:51:42.010Z,50.80
2018-05-04T18:57:46.467Z,53.60
2018-05-04T19:03:51.641Z,56.80
2018-05-04T19:09:56.004Z,56.60
2018-05-04T19:16:01.881Z,58.10
2018-05-04T19:22:06.248Z,58.00
2018-05-04T19:28:10.776Z,63.70
2018-05-04T19:34:15.151Z,67.80
2018-05-04T19:40:19.682Z,71.10
2018-05-04T19:46:24.238Z,75.40
2018-05-04T19:52:29.023Z,78.70
2018-05-04T19:58:33.544Z,81.50
2018-05-04T20:04:37.938Z,82.40
2018-05-04T20:10:42.363Z,83.20
2018-05-04T20:16:46.762Z,85.20
2018-05-04T20:22:51.469Z,86.70
2018-05-04T20:28:56.073Z,87.70
2018-05-04T20:35:00.408Z,88.80
2018-05-04T20:41:04.800Z,88.60
2018-05-04T20:47:09.152Z,88.60
2018-05-04T20:53:13.509Z,88.90
2018-05-04T20:59:17.889Z,88.50
2018-05-04T21:05:22.393Z,88.90
2018-05-04T21:11:26.780Z,90.10
2018-05-04T21:17:31.211Z,91.20
2018-05-04T21:23:35.685Z,91.50
2018-05-04T21:29:40.045Z,92.50
2018-05-04T21:35:44.416Z,93.60
2018-05-04T21:41:48.789Z,94.00
2018-05-04T21:47:53.467Z,94.00
2018-05-04T21:53:57.852Z,94.40
2018-05-04T22:00:02.231Z,95.00
2018-05-04T22:06:06.621Z,94.90
2018-05-04T22:12:10.987Z,95.80
2018-05-04T22:18:15.355Z,95.90
2018-05-04T22:24:20.000Z,95.90
2018-05-04T22:30:24.636Z,96.10
2018-05-04T22:36:28.981Z,96.20
2018-05-04T22:42:34.111Z,95.50
2018-05-04T22:48:38.479Z,95.50
2018-05-04T22:54:42.935Z,93.50
2018-05-04T23:00:47.317Z,93.10
2018-05-04T23:06:52.495Z,91.50
2018-05-04T23:12:56.868Z,91.30
2018-05-04T23:19:02.135Z,90.90
2018-05-04T23:25:06.549Z,90.90
2018-05-04T23:31:10.984Z,90.20
2018-05-04T23:37:16.135Z,91.00
2018-05-04T23:43:21.330Z,91.00
2018-05-04T23:49:25.710Z,91.30
2018-05-04T23:55:30.085Z,91.80
